Time;durP1;ratioP1;P1;durP2;ratioP2;P2;SDS_P1;SDS_P2;PMS_P1;PMS_P2;Temp;Humidity;BMP_temperature;BMP_pressure;BME280_temperature;BME280_humidity;BME280_pressure;Samples;Min_cycle;Max_cycle;Signal;HPM_P1;HPM_P2
2021/05/14 00:00:03;;;;;;;18.47;13.90;;;9.70;99.90;;;;;;5029978;28;20242;-65
2021/05/14 00:02:35;;;;;;;15.13;13.03;;;9.60;99.90;;;;;;5030069;28;20234;-65
2021/05/14 00:05:03;;;;;;;17.77;13.50;;;9.70;99.90;;;;;;5029047;28;20234;-65
2021/05/14 00:07:31;;;;;;;19.40;14.00;;;9.70;99.90;;;;;;5023061;28;20235;-65
2021/05/14 00:09:59;;;;;;;20.03;13.13;;;9.60;99.90;;;;;;5029701;28;20240;-65
2021/05/14 00:12:27;;;;;;;18.40;12.93;;;9.60;99.90;;;;;;5029772;28;20753;-65
2021/05/14 00:14:55;;;;;;;17.33;12.60;;;9.60;99.90;;;;;;5031312;28;20635;-65
2021/05/14 00:17:23;;;;;;;17.33;13.53;;;9.60;99.90;;;;;;5030748;28;20243;-65
2021/05/14 00:19:51;;;;;;;18.03;13.70;;;9.60;99.90;;;;;;5029993;28;20290;-65
2021/05/14 00:22:19;;;;;;;19.73;13.27;;;9.60;99.90;;;;;;5029420;28;20253;-65
2021/05/14 00:24:47;;;;;;;20.37;13.00;;;9.60;99.90;;;;;;5030370;28;20254;-65
2021/05/14 00:27:15;;;;;;;16.00;13.03;;;9.60;99.90;;;;;;5030160;28;20253;-65
2021/05/14 00:29:43;;;;;;;21.10;12.33;;;9.60;99.90;;;;;;5029335;28;20277;-65
2021/05/14 00:32:11;;;;;;;20.67;12.13;;;9.60;99.90;;;;;;5026786;28;20758;-65
2021/05/14 00:34:40;;;;;;;19.57;12.20;;;9.60;99.90;;;;;;5028280;28;20698;-65
2021/05/14 00:37:07;;;;;;;21.60;13.33;;;9.60;99.90;;;;;;5028610;28;20336;-65
2021/05/14 00:39:35;;;;;;;17.07;12.10;;;9.60;99.90;;;;;;5028263;28;20263;-65
2021/05/14 00:42:04;;;;;;;19.07;12.23;;;9.60;99.90;;;;;;5028222;28;20241;-65
2021/05/14 00:44:34;;;;;;;18.87;12.03;;;9.60;99.90;;;;;;5028375;28;20239;-65
2021/05/14 00:47:05;;;;;;;20.40;12.97;;;9.60;99.90;;;;;;5028859;28;20247;-65
2021/05/14 00:49:33;;;;;;;17.87;12.90;;;9.60;99.90;;;;;;5027773;28;20596;-65
2021/05/14 00:52:03;;;;;;;19.93;12.83;;;9.60;99.90;;;;;;5027703;28;20242;-65
2021/05/14 00:54:32;;;;;;;18.50;12.23;;;9.60;99.90;;;;;;5028376;28;20341;-65
2021/05/14 00:56:59;;;;;;;18.37;13.47;;;9.60;99.90;;;;;;5028444;28;20225;-65
2021/05/14 00:59:28;;;;;;;21.07;13.23;;;9.60;99.90;;;;;;5027126;28;20242;-65
2021/05/14 01:01:56;;;;;;;18.87;13.37;;;9.50;99.90;;;;;;5027480;28;20639;-65
2021/05/14 01:04:26;;;;;;;17.23;13.43;;;9.50;99.90;;;;;;5028412;28;20230;-65
2021/05/14 01:06:54;;;;;;;21.43;14.23;;;9.50;99.90;;;;;;5027968;28;20245;-65
2021/05/14 01:09:22;;;;;;;23.03;13.90;;;9.50;99.90;;;;;;5027979;28;20252;-65
2021/05/14 01:11:50;;;;;;;19.90;14.40;;;9.50;99.90;;;;;;5027548;28;20562;-65
2021/05/14 01:14:19;;;;;;;22.87;14.70;;;9.50;99.90;;;;;;5028127;28;20233;-65
2021/05/14 01:16:47;;;;;;;23.07;14.17;;;9.50;99.90;;;;;;5042982;28;20244;-65
2021/05/14 01:19:14;;;;;;;21.20;14.77;;;9.50;99.90;;;;;;5028511;28;20254;-65
2021/05/14 01:21:43;;;;;;;22.23;15.20;;;9.50;99.90;;;;;;5028218;28;20239;-65
2021/05/14 01:24:11;;;;;;;28.00;15.63;;;9.50;99.90;;;;;;5029239;28;20680;-65
2021/05/14 01:26:39;;;;;;;23.10;14.87;;;9.50;99.90;;;;;;5029102;28;20250;-65
2021/05/14 01:29:09;;;;;;;21.93;14.73;;;9.50;99.90;;;;;;5027292;28;20324;-65
2021/05/14 01:31:37;;;;;;;20.57;15.30;;;9.50;99.90;;;;;;5023470;28;20291;-65
2021/05/14 01:34:07;;;;;;;24.13;14.03;;;9.50;99.90;;;;;;5028371;28;20230;-65
2021/05/14 01:36:35;;;;;;;22.30;14.23;;;9.50;99.90;;;;;;5028474;28;20292;-65
2021/05/14 01:39:09;;;;;;;19.57;13.87;;;9.50;99.90;;;;;;5028676;28;20284;-65
2021/05/14 01:41:37;;;;;;;19.50;14.03;;;9.50;99.90;;;;;;5027628;28;20233;-65
2021/05/14 01:44:07;;;;;;;20.17;13.93;;;9.50;99.90;;;;;;5028684;28;20230;-65
2021/05/14 01:46:35;;;;;;;22.50;13.93;;;9.50;99.90;;;;;;5028623;28;20237;-65
2021/05/14 01:49:04;;;;;;;21.97;14.40;;;9.40;99.90;;;;;;5028201;28;20682;-65
2021/05/14 01:51:33;;;;;;;22.40;13.67;;;9.40;99.90;;;;;;4976150;28;20249;-65
2021/05/14 01:54:01;;;;;;;24.07;13.70;;;9.40;99.90;;;;;;1010164;28;10002024;-65
2021/05/14 01:56:30;;;;;;;19.53;13.30;;;9.50;99.90;;;;;;5028570;28;20474;-65
2021/05/14 01:59:03;;;;;;;19.20;12.63;;;9.40;99.90;;;;;;5028540;28;20242;-65
2021/05/14 02:01:31;;;;;;;22.13;13.60;;;9.40;99.90;;;;;;5027118;28;20292;-65
2021/05/14 02:03:59;;;;;;;20.60;13.20;;;9.50;99.90;;;;;;5028148;28;20236;-65
2021/05/14 02:06:27;;;;;;;20.10;11.93;;;9.50;99.90;;;;;;5008259;28;20238;-65
2021/05/14 02:08:54;;;;;;;22.87;12.13;;;9.50;99.90;;;;;;5008650;28;20242;-65
2021/05/14 02:11:22;;;;;;;23.43;13.83;;;9.40;99.90;;;;;;5009267;28;20239;-65
2021/05/14 02:13:51;;;;;;;18.00;11.63;;;9.40;99.90;;;;;;5028136;28;20328;-65
2021/05/14 02:16:20;;;;;;;20.33;12.40;;;9.40;99.90;;;;;;5027794;28;20239;-65
2021/05/14 02:18:48;;;;;;;23.17;12.73;;;9.40;99.90;;;;;;5027753;28;20595;-65
2021/05/14 02:21:15;;;;;;;26.97;13.00;;;9.40;99.90;;;;;;5027110;28;20244;-65
2021/05/14 02:23:43;;;;;;;21.43;12.40;;;9.40;99.90;;;;;;5028086;28;20763;-65
2021/05/14 02:26:11;;;;;;;21.00;11.30;;;9.40;99.90;;;;;;5023725;28;20247;-65
2021/05/14 02:28:39;;;;;;;25.10;12.43;;;9.30;99.90;;;;;;5021697;28;20234;-65
2021/05/14 02:31:08;;;;;;;19.00;11.23;;;9.30;99.90;;;;;;5027071;28;20243;-65
2021/05/14 02:33:36;;;;;;;22.57;12.17;;;9.30;99.90;;;;;;5027428;28;20254;-65
2021/05/14 02:36:04;;;;;;;20.20;10.47;;;9.30;99.90;;;;;;5027997;28;20656;-65
2021/05/14 02:38:32;;;;;;;26.73;12.27;;;9.30;99.90;;;;;;5027620;28;20242;-65
2021/05/14 02:41:00;;;;;;;18.17;10.63;;;9.30;99.90;;;;;;5026872;28;20671;-65
2021/05/14 02:43:28;;;;;;;24.80;11.90;;;9.30;99.90;;;;;;5027547;28;20296;-65
2021/05/14 02:45:56;;;;;;;27.50;11.53;;;9.30;99.90;;;;;;5028169;28;20234;-65
2021/05/14 02:48:24;;;;;;;26.90;11.33;;;9.40;99.90;;;;;;5027507;28;20591;-65
2021/05/14 02:50:52;;;;;;;18.97;10.37;;;9.30;99.90;;;;;;5026247;28;20603;-65
2021/05/14 02:53:20;;;;;;;24.87;11.00;;;9.30;99.90;;;;;;5027607;28;20234;-65
2021/05/14 02:55:48;;;;;;;23.70;10.97;;;9.30;99.90;;;;;;5027714;28;20233;-65
2021/05/14 02:58:15;;;;;;;24.50;10.27;;;9.30;99.90;;;;;;5026277;28;20707;-65
2021/05/14 03:00:45;;;;;;;19.03;10.27;;;9.20;99.90;;;;;;5025999;28;20313;-65
2021/05/14 03:03:12;;;;;;;24.40;10.60;;;9.20;99.90;;;;;;5027604;28;20242;-65
2021/05/14 03:05:41;;;;;;;21.13;10.97;;;9.20;99.90;;;;;;5027441;28;20236;-65
2021/05/14 03:08:09;;;;;;;28.23;12.20;;;9.20;99.90;;;;;;5027573;28;20237;-65
2021/05/14 03:10:37;;;;;;;22.67;11.53;;;9.20;99.90;;;;;;5025897;28;20713;-65
2021/05/14 03:13:05;;;;;;;26.07;12.60;;;9.20;99.90;;;;;;5027041;28;20234;-65
2021/05/14 03:15:33;;;;;;;29.30;13.47;;;9.30;99.90;;;;;;5027400;28;20238;-65
2021/05/14 03:18:01;;;;;;;30.67;12.67;;;9.20;99.90;;;;;;5027460;28;20697;-65
2021/05/14 03:20:29;;;;;;;24.63;13.27;;;9.20;99.90;;;;;;5025255;28;20234;-65
2021/05/14 03:22:58;;;;;;;26.87;13.20;;;9.20;99.90;;;;;;5030786;28;20628;-65
2021/05/14 03:25:25;;;;;;;34.47;13.40;;;9.20;99.90;;;;;;5030633;28;20287;-65
2021/05/14 03:27:53;;;;;;;26.67;12.77;;;9.20;99.90;;;;;;5030200;28;20234;-65
2021/05/14 03:30:22;;;;;;;24.27;12.10;;;9.20;99.90;;;;;;5030652;28;20547;-65
2021/05/14 03:32:49;;;;;;;28.20;12.50;;;9.30;99.90;;;;;;5030962;28;20235;-65
2021/05/14 03:35:17;;;;;;;27.03;12.07;;;9.30;99.90;;;;;;5031452;28;20324;-65
2021/05/14 03:37:48;;;;;;;27.20;11.90;;;9.30;99.90;;;;;;5030428;28;20254;-65
2021/05/14 03:40:20;;;;;;;22.97;11.60;;;9.30;99.90;;;;;;5030016;28;20244;-65
2021/05/14 03:42:48;;;;;;;25.37;11.73;;;9.30;99.90;;;;;;5030581;28;20246;-65
2021/05/14 03:45:17;;;;;;;25.03;12.47;;;9.30;99.90;;;;;;5031343;28;20338;-65
2021/05/14 03:47:45;;;;;;;29.13;11.63;;;9.30;99.90;;;;;;5020817;28;20264;-65
2021/05/14 03:50:14;;;;;;;28.27;11.37;;;9.30;99.90;;;;;;5030014;28;20329;-65
2021/05/14 03:52:43;;;;;;;24.00;10.80;;;9.20;99.90;;;;;;5030238;28;20260;-65
2021/05/14 03:55:11;;;;;;;20.67;10.37;;;9.20;99.90;;;;;;5031039;28;20243;-65
2021/05/14 03:57:40;;;;;;;32.70;12.10;;;9.20;99.90;;;;;;5030238;28;20237;-65
2021/05/14 04:00:10;;;;;;;24.10;11.17;;;9.20;99.90;;;;;;5030252;28;20242;-65
2021/05/14 04:02:38;;;;;;;19.77;10.00;;;9.20;99.90;;;;;;5030061;28;20237;-65
2021/05/14 04:05:07;;;;;;;22.43;10.83;;;9.20;99.90;;;;;;5030879;28;20768;-65
2021/05/14 04:07:35;;;;;;;24.20;10.67;;;9.20;99.90;;;;;;5029860;28;20233;-65
2021/05/14 04:10:11;;;;;;;21.03;10.50;;;9.20;99.90;;;;;;5029792;28;20244;-65
2021/05/14 04:15:26;;;;;;;23.10;11.20;;;9.20;99.90;;;;;;5030825;28;20320;-65
2021/05/14 04:17:54;;;;;;;19.70;11.43;;;9.20;99.90;;;;;;5031493;28;20327;-65
2021/05/14 04:20:22;;;;;;;22.90;11.07;;;9.20;99.90;;;;;;5032228;28;20248;-65
2021/05/14 04:22:51;;;;;;;26.80;11.27;;;9.20;99.90;;;;;;5026743;28;20230;-65
2021/05/14 04:25:19;;;;;;;24.73;10.60;;;9.20;99.90;;;;;;5032449;28;20371;-65
2021/05/14 04:27:48;;;;;;;20.03;10.43;;;9.10;99.90;;;;;;5032763;28;20341;-65
2021/05/14 04:30:18;;;;;;;25.00;12.13;;;9.20;99.90;;;;;;5028298;28;20327;-65
2021/05/14 04:32:45;;;;;;;22.30;11.20;;;9.10;99.90;;;;;;5024987;28;20240;-65
2021/05/14 04:35:13;;;;;;;22.83;11.13;;;9.10;99.90;;;;;;5028710;28;20243;-65
2021/05/14 04:37:41;;;;;;;23.40;11.30;;;9.10;99.90;;;;;;5027864;28;20261;-65
2021/05/14 04:40:11;;;;;;;25.93;11.77;;;9.10;99.90;;;;;;5029551;28;20288;-65
2021/05/14 04:42:39;;;;;;;28.33;11.60;;;9.10;99.90;;;;;;5029156;28;20237;-65
2021/05/14 04:45:12;;;;;;;21.37;11.17;;;9.10;99.90;;;;;;5028832;28;20671;-65
2021/05/14 04:47:40;;;;;;;23.03;11.10;;;9.20;99.90;;;;;;5029881;28;20241;-65
2021/05/14 04:50:12;;;;;;;24.87;11.33;;;9.30;99.90;;;;;;5028848;28;20242;-65
2021/05/14 04:52:39;;;;;;;24.33;10.80;;;9.30;99.90;;;;;;5029221;28;20698;-65
2021/05/14 04:55:09;;;;;;;22.70;10.90;;;9.40;99.90;;;;;;5029556;28;20324;-65
2021/05/14 04:57:36;;;;;;;18.93;10.93;;;9.40;99.90;;;;;;5029267;28;20296;-65
2021/05/14 05:00:07;;;;;;;25.73;11.60;;;9.40;99.90;;;;;;5029120;28;20764;-65
2021/05/14 05:02:37;;;;;;;21.10;10.53;;;9.40;99.90;;;;;;5029001;28;20240;-65
2021/05/14 05:05:06;;;;;;;24.37;11.63;;;9.50;99.90;;;;;;5029403;28;20237;-65
2021/05/14 05:07:34;;;;;;;19.93;10.83;;;9.40;99.90;;;;;;5029387;28;20233;-65
2021/05/14 05:10:01;;;;;;;20.63;11.40;;;9.40;99.90;;;;;;5028561;28;20260;-65
2021/05/14 05:12:29;;;;;;;25.90;11.57;;;9.40;99.90;;;;;;5028892;28;20254;-65
2021/05/14 05:14:57;;;;;;;21.33;10.03;;;9.40;99.90;;;;;;5029279;28;20700;-65
2021/05/14 05:17:25;;;;;;;24.93;11.17;;;9.40;99.90;;;;;;5029246;28;20241;-65
2021/05/14 05:19:55;;;;;;;21.43;10.53;;;9.40;99.90;;;;;;5027383;28;20234;-65
2021/05/14 05:22:23;;;;;;;19.43;10.67;;;9.40;99.90;;;;;;5026309;28;20237;-65
2021/05/14 05:24:51;;;;;;;21.97;10.60;;;9.40;99.90;;;;;;5028904;28;20718;-65
2021/05/14 05:27:19;;;;;;;22.07;10.87;;;9.40;99.90;;;;;;5028934;28;20242;-65
2021/05/14 05:29:47;;;;;;;24.17;11.00;;;9.40;99.90;;;;;;5028424;28;20430;-65
2021/05/14 05:32:14;;;;;;;25.60;10.80;;;9.40;99.90;;;;;;5028271;28;20241;-65
2021/05/14 05:34:43;;;;;;;25.00;11.27;;;9.40;99.90;;;;;;5028562;28;20276;-65
2021/05/14 05:37:11;;;;;;;23.80;10.63;;;9.40;99.90;;;;;;5028744;28;20714;-65
2021/05/14 05:39:39;;;;;;;26.77;10.60;;;9.40;99.90;;;;;;5027119;28;20316;-65
2021/05/14 05:42:07;;;;;;;20.20;9.40;;;9.40;99.90;;;;;;5028032;28;20594;-65
2021/05/14 05:44:35;;;;;;;21.60;10.60;;;9.40;99.90;;;;;;5028047;28;20597;-65
2021/05/14 05:47:03;;;;;;;25.23;9.70;;;9.40;99.90;;;;;;5028897;28;20241;-65
2021/05/14 05:49:30;;;;;;;23.37;10.33;;;9.40;99.90;;;;;;5027816;28;20254;-65
2021/05/14 05:51:58;;;;;;;22.93;10.47;;;9.40;99.90;;;;;;5028005;28;20233;-65
2021/05/14 05:54:27;;;;;;;21.30;10.07;;;9.40;99.90;;;;;;5028352;28;20319;-65
2021/05/14 05:56:57;;;;;;;21.17;10.63;;;9.40;99.90;;;;;;5028601;28;20261;-65
2021/05/14 05:59:25;;;;;;;19.27;9.57;;;9.40;99.90;;;;;;5028218;28;20241;-65
2021/05/14 06:01:53;;;;;;;24.57;11.63;;;9.40;99.90;;;;;;5026972;28;20612;-65
2021/05/14 06:04:22;;;;;;;21.30;9.27;;;9.40;99.90;;;;;;5028347;28;20233;-65
2021/05/14 06:06:49;;;;;;;30.00;10.80;;;9.40;99.90;;;;;;5028455;28;20325;-65
2021/05/14 06:09:17;;;;;;;19.60;9.63;;;9.50;99.90;;;;;;5027898;28;20254;-65
2021/05/14 06:11:46;;;;;;;19.17;9.83;;;9.50;99.90;;;;;;5027166;28;20249;-65
2021/05/14 06:14:14;;;;;;;21.77;9.60;;;9.60;99.90;;;;;;5028097;28;20417;-65
2021/05/14 06:16:42;;;;;;;24.13;8.73;;;9.60;99.90;;;;;;5023247;28;20229;-65
2021/05/14 06:19:13;;;;;;;19.33;8.60;;;9.60;99.90;;;;;;5018852;28;20758;-65
2021/05/14 06:21:46;;;;;;;20.20;9.07;;;9.60;99.90;;;;;;5023803;28;20302;-65
2021/05/14 06:24:14;;;;;;;23.20;8.57;;;9.60;99.90;;;;;;5025616;28;20924;-65
2021/05/14 06:26:44;;;;;;;18.93;8.97;;;9.60;99.90;;;;;;5026654;28;20238;-65
2021/05/14 06:29:14;;;;;;;18.17;8.43;;;9.60;99.90;;;;;;5026238;28;20825;-65
2021/05/14 06:31:42;;;;;;;21.70;7.50;;;9.60;99.90;;;;;;5025613;28;20809;-65
2021/05/14 06:34:10;;;;;;;21.03;8.93;;;9.60;99.90;;;;;;5026738;28;20702;-65
2021/05/14 06:36:38;;;;;;;20.97;8.30;;;9.60;99.90;;;;;;5026363;28;20241;-65
2021/05/14 06:39:06;;;;;;;19.87;8.87;;;9.60;99.90;;;;;;5026388;28;20233;-65
2021/05/14 06:41:34;;;;;;;22.40;8.37;;;9.70;99.90;;;;;;5024676;28;20266;-65
2021/05/14 06:44:02;;;;;;;18.73;8.83;;;9.80;99.90;;;;;;5026431;28;20300;-65
2021/05/14 06:46:32;;;;;;;21.97;8.47;;;9.90;99.90;;;;;;5026139;28;20335;-65
2021/05/14 06:49:00;;;;;;;18.33;7.77;;;9.90;99.90;;;;;;5026179;28;20264;-65
2021/05/14 06:51:28;;;;;;;21.37;8.57;;;10.00;99.90;;;;;;5024862;28;20232;-65
2021/05/14 06:53:57;;;;;;;14.37;7.60;;;10.10;99.90;;;;;;5026132;28;20693;-65
2021/05/14 06:56:24;;;;;;;18.47;7.57;;;10.20;99.90;;;;;;5025308;28;20748;-65
2021/05/14 06:58:54;;;;;;;21.33;7.80;;;10.40;99.90;;;;;;5026334;28;20641;-65
2021/05/14 07:01:22;;;;;;;17.77;7.00;;;10.50;99.90;;;;;;5025195;28;20245;-65
2021/05/14 07:03:52;;;;;;;15.23;6.80;;;10.60;99.90;;;;;;5025693;28;20238;-65
2021/05/14 07:06:20;;;;;;;23.03;7.50;;;10.60;99.90;;;;;;5026146;28;20261;-65
2021/05/14 07:08:49;;;;;;;18.90;7.53;;;10.70;99.90;;;;;;5025137;28;20258;-65
2021/05/14 07:11:17;;;;;;;21.50;7.67;;;10.80;99.90;;;;;;5024047;28;20349;-65
2021/05/14 07:13:45;;;;;;;14.83;6.80;;;10.80;99.90;;;;;;5023306;28;20697;-65
2021/05/14 07:16:13;;;;;;;15.43;7.20;;;10.80;99.90;;;;;;5024185;28;20247;-65
2021/05/14 07:18:41;;;;;;;22.70;8.00;;;10.80;99.90;;;;;;5025607;28;20317;-65
2021/05/14 07:21:10;;;;;;;17.90;7.07;;;10.70;99.90;;;;;;5024349;28;20597;-65
2021/05/14 07:23:54;;;;;;;15.43;6.87;;;10.70;99.90;;;;;;5026133;28;20238;-65
2021/05/14 07:26:22;;;;;;;15.93;6.83;;;10.80;99.90;;;;;;5026030;28;20266;-65
2021/05/14 07:28:50;;;;;;;20.10;6.80;;;10.70;99.90;;;;;;5025494;28;20246;-65
2021/05/14 07:31:17;;;;;;;18.00;7.47;;;10.60;99.90;;;;;;5025729;28;25578;-65
2021/05/14 07:33:47;;;;;;;21.90;7.03;;;10.60;99.90;;;;;;5026205;28;20764;-65
2021/05/14 07:36:16;;;;;;;21.03;7.37;;;10.60;99.90;;;;;;5027330;28;20243;-65
2021/05/14 07:38:44;;;;;;;21.23;7.20;;;10.60;99.90;;;;;;5026955;28;20332;-65
2021/05/14 07:41:12;;;;;;;14.63;7.50;;;10.50;99.90;;;;;;5025809;28;20785;-65
2021/05/14 07:43:40;;;;;;;24.67;7.63;;;10.50;99.90;;;;;;5026411;28;20231;-65
2021/05/14 07:46:08;;;;;;;17.93;7.40;;;10.60;99.90;;;;;;5024106;28;20247;-65
2021/05/14 07:48:35;;;;;;;19.03;7.33;;;10.60;99.90;;;;;;5028047;28;20228;-65
2021/05/14 07:51:04;;;;;;;16.83;7.47;;;10.60;99.90;;;;;;5024409;28;20243;-65
2021/05/14 07:53:32;;;;;;;20.90;8.30;;;10.70;99.90;;;;;;5025670;28;20653;-65
2021/05/14 07:56:01;;;;;;;17.10;6.90;;;10.60;99.90;;;;;;5026354;28;20250;-65
2021/05/14 07:58:28;;;;;;;19.30;7.60;;;10.70;99.90;;;;;;5025903;28;20329;-65
2021/05/14 08:00:56;;;;;;;17.17;7.13;;;10.80;99.90;;;;;;5026458;28;20247;-65
2021/05/14 08:03:24;;;;;;;18.00;7.50;;;10.80;99.90;;;;;;5026716;28;20243;-65
2021/05/14 08:05:52;;;;;;;20.60;7.50;;;10.90;99.90;;;;;;5027029;28;20231;-65
2021/05/14 08:08:22;;;;;;;16.90;6.93;;;11.00;99.90;;;;;;5028849;28;20254;-65
2021/05/14 08:10:55;;;;;;;20.57;6.93;;;11.00;99.90;;;;;;5026215;28;20239;-65
2021/05/14 08:13:25;;;;;;;14.83;6.90;;;11.00;99.90;;;;;;5028639;28;20241;-65
2021/05/14 08:15:53;;;;;;;19.77;7.90;;;10.90;99.90;;;;;;5030006;28;20261;-65
2021/05/14 08:18:22;;;;;;;14.93;6.93;;;10.90;99.90;;;;;;5030186;28;20243;-65
2021/05/14 08:20:50;;;;;;;16.37;7.00;;;10.90;99.90;;;;;;5029638;28;20235;-65
2021/05/14 08:23:20;;;;;;;19.27;7.50;;;11.00;99.90;;;;;;5029730;28;20243;-65
2021/05/14 08:25:49;;;;;;;24.30;8.00;;;10.90;99.90;;;;;;5030158;28;20258;-65
2021/05/14 08:28:18;;;;;;;21.00;7.37;;;11.00;99.90;;;;;;5029795;28;20257;-65
2021/05/14 08:30:48;;;;;;;16.87;7.97;;;11.00;99.90;;;;;;5029140;28;20286;-65
2021/05/14 08:33:16;;;;;;;15.70;7.37;;;11.00;99.90;;;;;;5029866;28;20602;-65
2021/05/14 08:35:44;;;;;;;20.63;7.73;;;11.00;99.90;;;;;;5029823;28;20258;-65
2021/05/14 08:38:12;;;;;;;20.37;8.03;;;11.00;99.90;;;;;;5029669;28;20231;-65
2021/05/14 08:40:40;;;;;;;19.77;7.57;;;11.00;99.90;;;;;;5028923;28;20230;-65
2021/05/14 08:43:12;;;;;;;17.33;7.47;;;10.90;99.90;;;;;;5029746;28;20242;-65
2021/05/14 08:45:40;;;;;;;17.80;7.73;;;10.90;99.90;;;;;;5029917;28;20270;-65
2021/05/14 08:48:12;;;;;;;16.47;7.47;;;11.00;99.90;;;;;;5027905;28;20606;-65
2021/05/14 08:50:42;;;;;;;18.47;7.67;;;11.00;99.90;;;;;;5027915;28;20259;-65
2021/05/14 08:53:30;;;;;;;19.13;7.33;;;10.90;99.90;;;;;;5028953;28;20284;-65
2021/05/14 08:55:59;;;;;;;17.40;7.40;;;10.90;99.90;;;;;;5029423;28;20231;-65
2021/05/14 08:58:28;;;;;;;15.80;7.20;;;10.80;99.90;;;;;;5027753;28;20242;-65
2021/05/14 09:00:56;;;;;;;15.93;7.27;;;10.80;99.90;;;;;;5026159;28;20694;-65
2021/05/14 09:03:26;;;;;;;17.00;7.00;;;10.80;99.90;;;;;;5013637;28;20314;-65
2021/05/14 09:05:55;;;;;;;15.20;6.63;;;10.90;99.90;;;;;;5030639;28;20241;-65
2021/05/14 09:08:30;;;;;;;14.40;6.77;;;11.00;99.90;;;;;;5010390;28;20317;-65
2021/05/14 09:10:59;;;;;;;16.40;7.00;;;11.00;99.90;;;;;;5013607;28;20742;-65
2021/05/14 09:13:38;;;;;;;16.77;7.13;;;11.00;99.90;;;;;;5012053;28;20320;-65
2021/05/14 09:16:07;;;;;;;17.90;7.27;;;10.90;99.90;;;;;;5013272;28;20242;-65
2021/05/14 09:18:35;;;;;;;16.57;7.40;;;10.80;99.90;;;;;;5011287;28;20318;-65
2021/05/14 09:21:04;;;;;;;17.30;7.33;;;10.80;99.90;;;;;;5020209;28;20235;-65
2021/05/14 09:23:35;;;;;;;15.07;6.80;;;10.80;99.90;;;;;;5011932;28;20243;-65
2021/05/14 09:26:05;;;;;;;20.53;8.33;;;10.70;99.90;;;;;;5009638;28;20250;-65
2021/05/14 09:28:37;;;;;;;16.03;7.70;;;10.70;99.90;;;;;;5022264;28;20311;-65
2021/05/14 09:31:12;;;;;;;15.03;7.63;;;10.70;99.90;;;;;;5012956;28;20258;-65
2021/05/14 09:33:43;;;;;;;16.97;7.77;;;10.70;99.90;;;;;;5005824;28;20246;-65
2021/05/14 09:36:14;;;;;;;24.20;8.77;;;10.70;99.90;;;;;;5020217;28;20274;-65
2021/05/14 09:38:45;;;;;;;16.00;7.73;;;10.70;99.90;;;;;;5019058;28;20246;-65
2021/05/14 09:41:32;;;;;;;17.30;7.93;;;10.60;99.90;;;;;;5016857;28;20686;-65
2021/05/14 09:44:06;;;;;;;18.30;8.10;;;10.60;99.90;;;;;;5003839;28;20239;-65
2021/05/14 09:46:38;;;;;;;21.33;8.37;;;10.60;99.90;;;;;;5012316;28;20316;-65
2021/05/14 09:49:10;;;;;;;18.83;7.70;;;10.70;99.90;;;;;;5011981;28;20251;-65
2021/05/14 09:51:48;;;;;;;18.73;7.80;;;10.70;99.90;;;;;;5014207;28;20305;-65
2021/05/14 09:54:27;;;;;;;17.53;8.13;;;10.70;99.90;;;;;;5005566;28;20297;-65
2021/05/14 10:00:03;;;;;;;17.67;8.70;;;10.60;99.90;;;;;;5011970;28;20258;-65
2021/05/14 10:02:34;;;;;;;25.67;9.67;;;10.60;99.90;;;;;;5007722;28;20705;-65
2021/05/14 10:05:05;;;;;;;26.50;10.13;;;10.60;99.90;;;;;;5006795;28;20884;-65
2021/05/14 10:07:36;;;;;;;20.73;9.23;;;10.60;99.90;;;;;;5009913;28;20289;-65
2021/05/14 10:10:07;;;;;;;25.87;11.63;;;10.60;99.90;;;;;;5007823;28;21241;-65
2021/05/14 10:12:38;;;;;;;19.60;10.30;;;10.50;99.90;;;;;;5012128;28;20268;-65
2021/05/14 10:15:09;;;;;;;21.43;10.00;;;10.50;99.90;;;;;;5013510;28;20255;-65
2021/05/14 10:17:44;;;;;;;16.47;10.17;;;10.60;99.90;;;;;;5012291;28;20246;-65
2021/05/14 10:20:15;;;;;;;19.40;9.03;;;10.60;99.90;;;;;;5020431;28;20253;-65
2021/05/14 10:22:45;;;;;;;20.17;9.33;;;10.60;99.90;;;;;;5012870;28;21001;-65
2021/05/14 10:25:14;;;;;;;19.60;10.30;;;10.60;99.90;;;;;;5012958;28;20247;-65
2021/05/14 10:27:45;;;;;;;21.47;9.53;;;10.50;99.90;;;;;;5014057;28;20694;-65
2021/05/14 10:30:14;;;;;;;16.17;9.40;;;10.50;99.90;;;;;;5016233;28;20240;-65
2021/05/14 10:32:54;;;;;;;18.50;10.13;;;10.50;99.90;;;;;;5019869;28;20717;-65
2021/05/14 10:35:27;;;;;;;15.83;8.70;;;10.50;99.90;;;;;;5005409;28;20247;-65
2021/05/14 10:38:01;;;;;;;18.20;9.57;;;10.50;99.90;;;;;;5018557;28;20246;-65
2021/05/14 10:40:43;;;;;;;17.30;9.57;;;10.60;99.90;;;;;;5012569;28;20788;-65
2021/05/14 10:43:20;;;;;;;17.43;9.23;;;10.60;99.90;;;;;;5013573;28;21149;-65
2021/05/14 10:46:00;;;;;;;20.77;9.57;;;10.60;99.90;;;;;;5013635;28;20249;-65
2021/05/14 10:48:29;;;;;;;18.10;9.40;;;10.50;99.90;;;;;;5007857;28;21203;-65
2021/05/14 10:50:59;;;;;;;18.83;8.77;;;10.50;99.90;;;;;;5015255;28;20322;-65
2021/05/14 10:53:36;;;;;;;19.13;9.50;;;10.50;99.90;;;;;;5004470;28;20254;-65
2021/05/14 10:56:50;;;;;;;13.57;8.30;;;10.50;99.90;;;;;;5010732;28;20605;-65
2021/05/14 10:59:33;;;;;;;13.33;8.73;;;10.50;99.90;;;;;;5014126;28;20247;-65
2021/05/14 11:02:25;;;;;;;16.40;8.33;;;10.50;99.90;;;;;;5007158;28;20329;-65
2021/05/14 11:04:54;;;;;;;15.37;9.07;;;10.40;99.90;;;;;;5007071;28;20341;-65
2021/05/14 11:07:37;;;;;;;14.60;9.10;;;10.40;99.90;;;;;;5014780;28;20239;-65
2021/05/14 11:10:34;;;;;;;17.23;9.43;;;10.50;99.90;;;;;;5016724;28;20242;-65
2021/05/14 11:13:41;;;;;;;17.17;9.87;;;10.50;99.90;;;;;;5015059;28;20239;-65
2021/05/14 11:16:38;;;;;;;12.93;8.47;;;10.40;99.90;;;;;;5010064;28;20243;-65
2021/05/14 11:19:26;;;;;;;18.47;10.37;;;10.50;99.90;;;;;;5030749;28;20809;-65
2021/05/14 11:22:14;;;;;;;19.63;9.50;;;10.40;99.90;;;;;;5018893;28;20243;-65
2021/05/14 11:24:49;;;;;;;19.13;9.83;;;10.40;99.90;;;;;;5010117;28;20222;-65
2021/05/14 11:27:20;;;;;;;15.23;9.53;;;10.40;99.90;;;;;;5014707;28;20250;-65
2021/05/14 11:29:51;;;;;;;18.27;9.70;;;10.40;99.90;;;;;;5008802;28;20265;-65
2021/05/14 11:32:31;;;;;;;20.87;10.50;;;10.50;99.90;;;;;;5009691;28;20251;-65
2021/05/14 11:35:14;;;;;;;18.87;9.57;;;10.50;99.90;;;;;;5014059;28;20262;-65
2021/05/14 11:37:50;;;;;;;15.53;9.80;;;10.50;99.90;;;;;;5013797;28;20234;-65
2021/05/14 11:40:20;;;;;;;12.03;9.67;;;10.50;99.90;;;;;;5009445;28;21167;-65
2021/05/14 11:42:50;;;;;;;19.67;9.97;;;10.50;99.90;;;;;;5011251;28;20460;-65
2021/05/14 11:45:21;;;;;;;19.73;11.07;;;10.50;99.90;;;;;;5009979;28;20302;-65
2021/05/14 11:47:53;;;;;;;22.07;11.17;;;10.50;99.90;;;;;;5012393;28;20300;-65
2021/05/14 11:50:27;;;;;;;19.23;11.20;;;10.50;99.90;;;;;;5013629;28;20246;-65
2021/05/14 11:52:57;;;;;;;18.67;11.57;;;10.50;99.90;;;;;;5017628;28;20307;-65
2021/05/14 11:55:27;;;;;;;18.20;11.47;;;10.50;99.90;;;;;;5006740;28;20698;-65
2021/05/14 11:57:56;;;;;;;16.93;11.07;;;10.50;99.90;;;;;;5012376;28;20230;-65
2021/05/14 12:00:31;;;;;;;16.80;11.20;;;10.50;99.90;;;;;;5023397;28;20247;-65
2021/05/14 12:03:04;;;;;;;17.03;11.17;;;10.50;99.90;;;;;;5015925;28;20667;-65
2021/05/14 12:05:33;;;;;;;14.83;10.60;;;10.50;99.90;;;;;;5013265;28;20322;-65
2021/05/14 12:08:13;;;;;;;21.43;11.70;;;10.50;99.90;;;;;;5024666;28;20608;-65
2021/05/14 12:10:47;;;;;;;16.07;11.47;;;10.50;99.90;;;;;;5024636;28;20294;-65
2021/05/14 12:13:16;;;;;;;21.43;12.00;;;10.50;99.90;;;;;;5028120;28;20268;-65
2021/05/14 12:15:44;;;;;;;16.97;11.57;;;10.60;99.90;;;;;;5029390;28;20238;-65
2021/05/14 12:18:13;;;;;;;21.80;11.77;;;10.60;99.90;;;;;;5030612;28;20253;-65
2021/05/14 12:20:43;;;;;;;17.53;11.07;;;10.60;99.90;;;;;;5028859;28;20243;-65
2021/05/14 12:23:14;;;;;;;18.63;11.83;;;10.60;99.90;;;;;;5029636;28;20602;-64
2021/05/14 12:25:45;;;;;;;16.73;11.03;;;10.70;99.90;;;;;;5030147;28;20273;-64
2021/05/14 12:28:38;;;;;;;16.57;11.10;;;10.60;99.90;;;;;;5030405;28;20724;-64
2021/05/14 12:31:09;;;;;;;19.03;11.20;;;10.60;99.90;;;;;;5028977;28;20239;-64
2021/05/14 12:33:48;;;;;;;19.27;11.37;;;10.60;99.90;;;;;;5029882;28;20237;-64
2021/05/14 12:36:25;;;;;;;18.00;11.27;;;10.50;99.90;;;;;;5039041;28;20234;-64
2021/05/14 12:39:04;;;;;;;18.13;11.77;;;10.50;99.90;;;;;;5029689;28;20824;-64
2021/05/14 12:41:33;;;;;;;18.60;12.03;;;10.50;99.90;;;;;;5027887;28;20294;-64
2021/05/14 12:44:14;;;;;;;18.43;12.00;;;10.40;99.90;;;;;;5029259;28;20251;-64
2021/05/14 12:47:07;;;;;;;20.60;11.30;;;10.40;99.90;;;;;;5029780;28;20239;-64
2021/05/14 12:49:43;;;;;;;19.07;11.67;;;10.40;99.90;;;;;;5028013;28;20285;-64
2021/05/14 12:52:13;;;;;;;19.53;11.87;;;10.50;99.90;;;;;;5028822;28;20258;-64
2021/05/14 12:54:54;;;;;;;18.60;11.70;;;10.50;99.90;;;;;;5028712;28;20293;-64
2021/05/14 12:57:33;;;;;;;18.53;11.53;;;10.50;99.90;;;;;;5028277;28;20243;-64